Time;durP1;ratioP1;P1;durP2;ratioP2;P2;SDS_P1;SDS_P2;PMS_P1;PMS_P2;Temp;Humidity;BMP_temperature;BMP_pressure;BME280_temperature;BME280_humidity;BME280_pressure;Samples;Min_cycle;Max_cycle;Signal;HPM_P1;HPM_P2
2023/05/19 00:02:24;;;;;;;;;;;16.60;70.70;;;;;;5090075;28;20011;-71
2023/05/19 00:04:50;;;;;;;;;;;16.60;70.70;;;;;;5089095;28;19931;-72
2023/05/19 00:07:17;;;;;;;;;;;16.70;70.80;;;;;;5090258;28;19915;-71
2023/05/19 00:09:43;;;;;;;;;;;16.70;70.80;;;;;;5090357;28;19962;-71
2023/05/19 00:12:09;;;;;;;;;;;16.70;70.70;;;;;;5090159;28;19952;-72
2023/05/19 00:14:35;;;;;;;;;;;16.70;70.60;;;;;;5090003;28;19943;-71
2023/05/19 00:17:01;;;;;;;;;;;16.60;70.50;;;;;;5090021;28;20366;-71
2023/05/19 00:19:31;;;;;;;;;;;16.50;70.50;;;;;;5089955;28;19912;-71
2023/05/19 00:21:57;;;;;;;;;;;16.50;70.70;;;;;;5090046;28;19993;-71
2023/05/19 00:24:22;;;;;;;;;;;16.40;70.70;;;;;;5089802;28;19912;-71
2023/05/19 00:26:48;;;;;;;;;;;16.40;70.80;;;;;;5089861;28;20360;-72
2023/05/19 00:29:17;;;;;;;;;;;16.40;70.80;;;;;;5089792;28;19908;-72
2023/05/19 00:31:43;;;;;;;;;;;16.40;70.80;;;;;;5089718;28;20379;-72
2023/05/19 00:34:08;;;;;;;;;;;16.40;70.80;;;;;;5088492;28;19924;-72
2023/05/19 00:36:34;;;;;;;;;;;16.40;70.90;;;;;;5089835;28;19912;-72
2023/05/19 00:38:59;;;;;;;;;;;16.30;70.90;;;;;;5089657;28;19908;-71
2023/05/19 00:41:25;;;;;;;;;;;16.30;71.00;;;;;;5089624;28;20260;-72
2023/05/19 00:43:51;;;;;;;;;;;16.20;71.00;;;;;;5088184;28;20061;-72
2023/05/19 00:46:17;;;;;;;;;;;16.20;71.10;;;;;;5089497;28;19919;-72
2023/05/19 00:48:44;;;;;;;;;;;16.30;71.20;;;;;;5088041;28;20417;-72
2023/05/19 00:51:13;;;;;;;;;;;16.20;71.10;;;;;;5089380;28;19919;-72
2023/05/19 00:53:39;;;;;;;;;;;16.20;71.20;;;;;;5088887;28;19924;-72
2023/05/19 00:56:04;;;;;;;;;;;16.00;71.20;;;;;;5089180;28;19921;-72
2023/05/19 00:58:31;;;;;;;;;;;15.90;71.50;;;;;;5087770;28;19936;-72
2023/05/19 01:01:05;;;;;;;;;;;15.90;71.60;;;;;;5089174;28;20360;-72
2023/05/19 01:03:33;;;;;;;;;;;15.90;71.70;;;;;;5089087;28;19920;-72
2023/05/19 01:06:05;;;;;;;;;;;15.80;71.70;;;;;;5089075;28;19912;-72
2023/05/19 01:08:32;;;;;;;;;;;15.80;71.70;;;;;;5089161;28;19930;-72
2023/05/19 01:10:58;;;;;;;;;;;15.70;71.60;;;;;;5087649;28;20291;-72
2023/05/19 01:13:24;;;;;;;;;;;15.60;71.70;;;;;;5088995;28;19965;-72
2023/05/19 01:16:05;;;;;;;;;;;15.50;71.70;;;;;;5088798;28;20280;-72
2023/05/19 01:18:46;;;;;;;;;;;15.40;71.70;;;;;;5088962;28;19999;-72
2023/05/19 01:21:11;;;;;;;;;;;15.30;71.70;;;;;;5088971;28;20105;-72
2023/05/19 01:23:57;;;;;;;;;;;15.20;71.70;;;;;;5089307;28;20018;-72
2023/05/19 01:26:35;;;;;;;;;;;15.10;71.80;;;;;;5077102;28;19942;-72
2023/05/19 01:29:05;;;;;;;;;;;15.00;71.80;;;;;;5088629;28;20354;-72
2023/05/19 01:31:32;;;;;;;;;;;14.90;71.80;;;;;;5088632;28;19908;-72
2023/05/19 01:33:58;;;;;;;;;;;14.90;71.80;;;;;;5088505;28;19966;-72
2023/05/19 01:36:24;;;;;;;;;;;14.80;71.70;;;;;;5087046;28;20354;-72
2023/05/19 01:38:52;;;;;;;;;;;14.70;71.70;;;;;;5070457;28;19919;-72
2023/05/19 01:41:20;;;;;;;;;;;14.70;71.80;;;;;;5086860;28;20268;-72
2023/05/19 01:43:46;;;;;;;;;;;14.70;71.80;;;;;;5088511;28;19912;-72
2023/05/19 01:46:12;;;;;;;;;;;14.70;71.80;;;;;;5088315;28;19912;-71
2023/05/19 01:48:38;;;;;;;;;;;14.70;71.80;;;;;;5087225;28;19908;-72
2023/05/19 01:51:04;;;;;;;;;;;14.70;71.80;;;;;;5088513;28;19912;-72
2023/05/19 01:53:29;;;;;;;;;;;14.70;71.70;;;;;;5088345;28;19950;-72
2023/05/19 01:55:55;;;;;;;;;;;14.70;71.70;;;;;;5088390;28;20190;-71
2023/05/19 01:58:24;;;;;;;;;;;14.80;71.90;;;;;;5088484;28;19916;-71
2023/05/19 02:01:12;;;;;;;;;;;14.90;71.80;;;;;;5088324;28;19955;-71
2023/05/19 02:03:50;;;;;;;;;;;14.90;71.60;;;;;;5084360;28;19928;-71
2023/05/19 02:06:30;;;;;;;;;;;14.90;71.50;;;;;;5088346;28;19947;-72
2023/05/19 02:09:06;;;;;;;;;;;14.90;71.40;;;;;;5088067;28;19965;-71
2023/05/19 02:11:38;;;;;;;;;;;14.90;71.20;;;;;;5088155;28;19954;-71
2023/05/19 02:14:07;;;;;;;;;;;14.90;71.00;;;;;;5088037;28;19912;-71
2023/05/19 02:16:33;;;;;;;;;;;14.80;70.90;;;;;;5088187;28;19912;-71
2023/05/19 02:18:59;;;;;;;;;;;14.60;71.00;;;;;;5088062;28;20300;-71
2023/05/19 02:21:24;;;;;;;;;;;14.50;71.10;;;;;;5088587;28;19916;-71
2023/05/19 02:23:50;;;;;;;;;;;14.30;71.20;;;;;;5088130;28;19912;-71
2023/05/19 02:26:15;;;;;;;;;;;14.20;71.30;;;;;;5088024;28;19919;-71
2023/05/19 02:28:41;;;;;;;;;;;14.00;71.40;;;;;;5088036;28;20323;-72
2023/05/19 02:31:07;;;;;;;;;;;13.80;71.30;;;;;;5087943;28;19919;-71
2023/05/19 02:33:33;;;;;;;;;;;13.80;71.50;;;;;;5087906;28;19920;-71
2023/05/19 02:35:59;;;;;;;;;;;13.70;71.40;;;;;;5087907;28;19908;-71
2023/05/19 02:38:25;;;;;;;;;;;13.70;71.40;;;;;;5087957;28;19951;-71
2023/05/19 02:40:51;;;;;;;;;;;13.60;71.40;;;;;;5087927;28;19915;-71
2023/05/19 02:43:17;;;;;;;;;;;13.60;71.30;;;;;;5086567;28;19912;-71
2023/05/19 02:45:42;;;;;;;;;;;13.60;71.30;;;;;;5087936;28;20396;-71
2023/05/19 02:48:08;;;;;;;;;;;13.60;71.30;;;;;;5087870;28;19963;-72
2023/05/19 02:50:34;;;;;;;;;;;13.60;71.20;;;;;;5088180;28;19918;-71
2023/05/19 02:52:59;;;;;;;;;;;13.60;71.20;;;;;;5087869;28;19912;-71
2023/05/19 02:55:25;;;;;;;;;;;13.60;71.20;;;;;;5087676;28;19924;-71
2023/05/19 02:57:51;;;;;;;;;;;13.60;71.20;;;;;;5087830;28;19957;-71
2023/05/19 03:00:16;;;;;;;;;;;13.60;71.20;;;;;;5087712;28;20306;-71
2023/05/19 03:02:42;;;;;;;;;;;13.50;71.20;;;;;;5086172;28;19924;-71
2023/05/19 03:05:09;;;;;;;;;;;13.50;71.40;;;;;;5088094;28;20425;-71
2023/05/19 03:07:34;;;;;;;;;;;13.60;71.30;;;;;;5086569;28;20002;-70
2023/05/19 03:10:02;;;;;;;;;;;13.70;71.10;;;;;;5087595;28;20301;-71
2023/05/19 03:12:28;;;;;;;;;;;13.70;70.90;;;;;;5088026;28;19909;-71
2023/05/19 03:14:54;;;;;;;;;;;13.70;70.80;;;;;;5087832;28;19935;-70
2023/05/19 03:17:19;;;;;;;;;;;13.70;70.70;;;;;;5091681;28;20280;-71
2023/05/19 03:19:45;;;;;;;;;;;13.70;70.60;;;;;;5091273;28;19924;-71
2023/05/19 03:22:11;;;;;;;;;;;13.70;70.50;;;;;;5091466;28;19912;-71
2023/05/19 03:24:36;;;;;;;;;;;13.70;70.60;;;;;;5091432;28;20377;-71
2023/05/19 03:27:04;;;;;;;;;;;13.70;70.60;;;;;;5089938;28;19940;-71
2023/05/19 03:29:29;;;;;;;;;;;13.70;70.60;;;;;;5091212;28;19916;-71
2023/05/19 03:31:55;;;;;;;;;;;13.70;70.50;;;;;;5090083;28;19923;-71
2023/05/19 03:34:21;;;;;;;;;;;13.70;70.50;;;;;;5091583;28;19920;-72
2023/05/19 03:36:48;;;;;;;;;;;13.70;71.10;;;;;;5091358;28;20292;-71
2023/05/19 03:39:15;;;;;;;;;;;13.70;70.50;;;;;;5090952;28;20334;-71
2023/05/19 03:41:40;;;;;;;;;;;13.70;70.50;;;;;;5091058;28;19904;-72
2023/05/19 03:44:06;;;;;;;;;;;13.70;70.50;;;;;;5091027;28;20390;-71
2023/05/19 03:46:32;;;;;;;;;;;13.70;70.40;;;;;;5090879;28;19912;-71
2023/05/19 03:48:57;;;;;;;;;;;13.70;70.40;;;;;;5089473;28;19916;-71
2023/05/19 03:51:23;;;;;;;;;;;13.70;70.90;;;;;;5090895;28;19912;-71
2023/05/19 03:53:48;;;;;;;;;;;13.60;70.30;;;;;;5090770;28;19923;-72
2023/05/19 03:56:15;;;;;;;;;;;13.50;70.30;;;;;;5090708;28;19912;-72
2023/05/19 03:58:43;;;;;;;;;;;13.50;70.30;;;;;;5090642;28;19916;-72
2023/05/19 04:01:09;;;;;;;;;;;13.50;70.40;;;;;;5090288;28;20300;-72
2023/05/19 04:03:35;;;;;;;;;;;13.50;70.40;;;;;;5089387;28;20364;-72
2023/05/19 04:06:00;;;;;;;;;;;13.40;70.40;;;;;;5089260;28;19920;-72
2023/05/19 04:08:26;;;;;;;;;;;13.40;70.50;;;;;;5090294;28;20482;-72
2023/05/19 04:10:51;;;;;;;;;;;13.40;70.50;;;;;;5090364;28;19960;-72
2023/05/19 04:13:17;;;;;;;;;;;13.40;70.50;;;;;;5090280;28;19961;-72
2023/05/19 04:15:42;;;;;;;;;;;13.40;70.40;;;;;;5090611;28;19973;-72
2023/05/19 04:18:08;;;;;;;;;;;13.40;70.40;;;;;;5089038;28;19912;-72
2023/05/19 04:20:34;;;;;;;;;;;13.30;70.50;;;;;;5090409;28;20634;-72
2023/05/19 04:22:59;;;;;;;;;;;13.30;70.50;;;;;;5090299;28;20292;-72
2023/05/19 04:25:27;;;;;;;;;;;13.30;70.50;;;;;;5090237;28;20012;-72
2023/05/19 04:27:52;;;;;;;;;;;13.20;70.40;;;;;;5089319;28;20333;-72
2023/05/19 04:30:21;;;;;;;;;;;13.20;70.40;;;;;;5088725;28;20011;-72
2023/05/19 04:32:49;;;;;;;;;;;13.10;70.30;;;;;;5090531;28;20412;-72
2023/05/19 04:35:16;;;;;;;;;;;13.10;70.40;;;;;;5089981;28;19916;-72
2023/05/19 04:37:45;;;;;;;;;;;13.10;70.40;;;;;;5071952;28;20011;-72
2023/05/19 04:40:11;;;;;;;;;;;13.10;70.30;;;;;;5089964;28;19915;-72
2023/05/19 04:42:40;;;;;;;;;;;13.10;70.30;;;;;;5088833;28;19989;-72
2023/05/19 04:45:07;;;;;;;;;;;13.10;70.30;;;;;;5088337;28;20011;-72
2023/05/19 04:47:35;;;;;;;;;;;13.10;70.30;;;;;;5089847;28;19920;-72
2023/05/19 04:50:01;;;;;;;;;;;13.10;70.40;;;;;;5089157;28;20001;-72
2023/05/19 04:52:27;;;;;;;;;;;13.20;70.50;;;;;;5089436;28;19916;-72
2023/05/19 04:54:53;;;;;;;;;;;13.20;70.50;;;;;;5089164;28;19920;-72
2023/05/19 04:57:18;;;;;;;;;;;13.20;70.40;;;;;;5088989;28;19962;-72
2023/05/19 04:59:45;;;;;;;;;;;13.20;70.40;;;;;;5089112;28;19919;-72
2023/05/19 05:02:10;;;;;;;;;;;13.20;70.40;;;;;;5088591;28;20023;-71
2023/05/19 05:04:39;;;;;;;;;;;13.20;70.40;;;;;;5089079;28;19999;-72
2023/05/19 05:07:04;;;;;;;;;;;13.20;70.50;;;;;;5089164;28;19952;-72
2023/05/19 05:09:30;;;;;;;;;;;13.30;70.50;;;;;;5088864;28;19964;-72
2023/05/19 05:11:56;;;;;;;;;;;13.30;70.40;;;;;;5088996;28;19951;-72
2023/05/19 05:14:21;;;;;;;;;;;13.30;70.30;;;;;;5088900;28;19927;-72
2023/05/19 05:16:47;;;;;;;;;;;13.30;70.30;;;;;;5088882;28;19908;-72
2023/05/19 05:19:13;;;;;;;;;;;13.30;70.30;;;;;;5088903;28;19916;-73
2023/05/19 05:21:39;;;;;;;;;;;13.40;70.40;;;;;;5088836;28;19916;-72
2023/05/19 05:24:04;;;;;;;;;;;13.40;70.40;;;;;;5087217;28;20366;-72
2023/05/19 05:26:32;;;;;;;;;;;13.40;70.30;;;;;;5088572;28;19965;-72
2023/05/19 05:28:57;;;;;;;;;;;13.40;70.30;;;;;;5088748;28;19912;-72
2023/05/19 05:31:23;;;;;;;;;;;13.50;70.40;;;;;;5086823;28;19912;-72
2023/05/19 05:33:48;;;;;;;;;;;13.50;70.30;;;;;;5088419;28;19959;-72
2023/05/19 05:36:14;;;;;;;;;;;13.50;70.30;;;;;;5088313;28;19913;-72
2023/05/19 05:38:39;;;;;;;;;;;13.50;70.30;;;;;;5088280;28;19912;-72
2023/05/19 05:41:05;;;;;;;;;;;13.60;70.40;;;;;;5087200;28;19920;-72
2023/05/19 05:43:31;;;;;;;;;;;13.60;70.40;;;;;;5088287;28;19990;-72
2023/05/19 05:45:56;;;;;;;;;;;13.70;70.40;;;;;;5088376;28;19915;-72
2023/05/19 05:48:22;;;;;;;;;;;13.70;70.40;;;;;;5087850;28;19987;-71
2023/05/19 05:50:48;;;;;;;;;;;13.70;70.30;;;;;;5087798;28;20004;-72
2023/05/19 05:53:18;;;;;;;;;;;13.80;70.30;;;;;;5087985;28;20313;-72
2023/05/19 05:55:47;;;;;;;;;;;13.80;70.40;;;;;;5088000;28;20015;-72
2023/05/19 05:58:13;;;;;;;;;;;13.90;70.50;;;;;;5087925;28;19919;-72
2023/05/19 06:00:42;;;;;;;;;;;14.00;70.50;;;;;;5087814;28;19993;-71
2023/05/19 06:03:08;;;;;;;;;;;14.00;70.40;;;;;;5087755;28;19931;-72
2023/05/19 06:05:34;;;;;;;;;;;14.10;70.50;;;;;;5087531;28;19912;-72
2023/05/19 06:08:00;;;;;;;;;;;14.10;70.40;;;;;;5088292;28;19909;-72
2023/05/19 06:10:26;;;;;;;;;;;14.10;70.40;;;;;;5086257;28;19923;-72
2023/05/19 06:12:52;;;;;;;;;;;14.20;70.40;;;;;;5087800;28;19938;-72
2023/05/19 06:15:17;;;;;;;;;;;14.30;70.40;;;;;;5087552;28;19916;-72
2023/05/19 06:17:43;;;;;;;;;;;14.30;70.50;;;;;;5087571;28;19918;-72
2023/05/19 06:20:09;;;;;;;;;;;14.40;70.50;;;;;;5086397;28;20336;-72
2023/05/19 06:22:35;;;;;;;;;;;14.40;70.50;;;;;;5087643;28;19908;-71
2023/05/19 06:25:00;;;;;;;;;;;14.50;70.50;;;;;;5086256;28;20007;-73
2023/05/19 06:27:26;;;;;;;;;;;14.50;70.50;;;;;;5087470;28;19955;-72
2023/05/19 06:29:51;;;;;;;;;;;14.60;70.50;;;;;;5087543;28;19915;-72
2023/05/19 06:32:17;;;;;;;;;;;14.60;70.40;;;;;;5087491;28;19948;-72
2023/05/19 06:34:42;;;;;;;;;;;14.70;70.40;;;;;;5087389;28;20449;-72
2023/05/19 06:37:08;;;;;;;;;;;14.70;70.40;;;;;;5087491;28;20011;-72
2023/05/19 06:39:34;;;;;;;;;;;14.70;70.40;;;;;;5087274;28;19912;-72
2023/05/19 06:41:59;;;;;;;;;;;14.70;70.40;;;;;;5087652;28;19965;-72
2023/05/19 06:44:25;;;;;;;;;;;14.70;70.80;;;;;;5087469;28;20406;-73
2023/05/19 06:46:51;;;;;;;;;;;14.80;70.60;;;;;;5087067;28;19912;-73
2023/05/19 06:49:16;;;;;;;;;;;14.80;70.60;;;;;;5086880;28;19916;-73
2023/05/19 06:51:42;;;;;;;;;;;14.80;70.60;;;;;;5090562;28;19912;-73
2023/05/19 06:54:09;;;;;;;;;;;14.90;70.70;;;;;;5090989;28;20581;-73
2023/05/19 06:56:35;;;;;;;;;;;14.90;70.60;;;;;;5090925;28;20380;-73
2023/05/19 06:59:00;;;;;;;;;;;14.90;70.60;;;;;;5090565;28;20077;-73
2023/05/19 07:01:26;;;;;;;;;;;14.90;70.70;;;;;;5090341;28;19920;-73
2023/05/19 07:03:52;;;;;;;;;;;15.00;70.70;;;;;;5089636;28;20225;-73
2023/05/19 07:06:17;;;;;;;;;;;15.00;70.70;;;;;;5090738;28;20318;-73
2023/05/19 07:08:43;;;;;;;;;;;15.00;70.70;;;;;;5090900;28;19912;-73
2023/05/19 07:11:08;;;;;;;;;;;15.10;70.80;;;;;;5090584;28;20065;-72
2023/05/19 07:13:34;;;;;;;;;;;15.10;70.70;;;;;;5090330;28;19922;-72
2023/05/19 07:16:00;;;;;;;;;;;15.20;70.70;;;;;;5090540;28;19957;-72
2023/05/19 07:18:25;;;;;;;;;;;15.20;70.70;;;;;;5090773;28;19985;-73
2023/05/19 07:20:52;;;;;;;;;;;15.30;70.70;;;;;;5090797;28;19913;-74
2023/05/19 07:23:18;;;;;;;;;;;15.40;70.70;;;;;;5090554;28;19944;-73
2023/05/19 07:25:43;;;;;;;;;;;15.40;70.70;;;;;;5090671;28;19986;-73
2023/05/19 07:28:09;;;;;;;;;;;15.50;70.80;;;;;;5089376;28;19919;-74
2023/05/19 07:30:35;;;;;;;;;;;15.50;70.80;;;;;;5090513;28;20397;-74
2023/05/19 07:33:00;;;;;;;;;;;15.60;70.80;;;;;;5090636;28;19965;-73
2023/05/19 07:35:26;;;;;;;;;;;15.60;70.80;;;;;;5090305;28;20398;-74
2023/05/19 07:37:51;;;;;;;;;;;15.60;70.80;;;;;;5090596;28;19908;-73
2023/05/19 07:40:17;;;;;;;;;;;15.60;70.90;;;;;;5090099;28;20313;-74
2023/05/19 07:42:43;;;;;;;;;;;15.70;70.90;;;;;;5090012;28;19915;-73
2023/05/19 07:45:09;;;;;;;;;;;15.80;71.00;;;;;;5089973;28;19916;-73
2023/05/19 07:47:35;;;;;;;;;;;15.90;71.00;;;;;;5090225;28;19951;-73
2023/05/19 07:50:00;;;;;;;;;;;15.90;70.90;;;;;;5090189;28;19947;-73
2023/05/19 07:52:26;;;;;;;;;;;16.10;71.00;;;;;;5088243;28;19919;-73
2023/05/19 07:54:52;;;;;;;;;;;16.20;71.00;;;;;;5089538;28;20006;-73
2023/05/19 07:57:17;;;;;;;;;;;16.30;70.90;;;;;;5094636;28;19908;-73
2023/05/19 07:59:43;;;;;;;;;;;16.40;70.90;;;;;;5097968;28;19925;-73
2023/05/19 08:02:09;;;;;;;;;;;16.50;70.90;;;;;;5086351;28;19924;-73
2023/05/19 08:04:35;;;;;;;;;;;16.60;70.90;;;;;;5089102;28;19923;-73
2023/05/19 08:07:00;;;;;;;;;;;16.70;70.90;;;;;;5089076;28;19916;-74
2023/05/19 08:09:26;;;;;;;;;;;16.70;70.80;;;;;;5089456;28;19934;-73
2023/05/19 08:11:52;;;;;;;;;;;16.80;70.80;;;;;;5089457;28;19912;-73
2023/05/19 08:14:19;;;;;;;;;;;16.80;70.90;;;;;;5089035;28;20261;-73
2023/05/19 08:16:45;;;;;;;;;;;16.90;70.90;;;;;;5088927;28;19916;-74
2023/05/19 08:19:10;;;;;;;;;;;16.90;71.00;;;;;;5088912;28;19952;-74
2023/05/19 08:21:36;;;;;;;;;;;17.00;71.00;;;;;;5088996;28;19951;-75
2023/05/19 08:24:02;;;;;;;;;;;17.00;70.80;;;;;;5089254;28;20241;-74
2023/05/19 08:26:28;;;;;;;;;;;16.90;70.80;;;;;;5088997;28;19914;-74
2023/05/19 08:28:53;;;;;;;;;;;17.00;71.10;;;;;;5089315;28;20349;-74
2023/05/19 08:31:19;;;;;;;;;;;17.00;71.00;;;;;;5088755;28;20218;-74
2023/05/19 08:33:44;;;;;;;;;;;17.10;71.10;;;;;;5088246;28;20545;-74
2023/05/19 08:36:10;;;;;;;;;;;17.20;71.10;;;;;;5088045;28;19912;-75
2023/05/19 08:38:36;;;;;;;;;;;17.20;71.10;;;;;;5087123;28;19913;-74
2023/05/19 08:41:02;;;;;;;;;;;17.30;71.10;;;;;;5086871;28;19926;-74
2023/05/19 08:43:27;;;;;;;;;;;17.40;71.30;;;;;;5088373;28;19916;-74
2023/05/19 08:45:54;;;;;;;;;;;17.40;71.40;;;;;;5087101;28;19920;-75
2023/05/19 08:48:20;;;;;;;;;;;17.50;71.40;;;;;;5088510;28;20019;-74
2023/05/19 08:50:52;;;;;;;;;;;17.60;71.30;;;;;;5088093;28;19941;-75
2023/05/19 08:53:26;;;;;;;;;;;17.60;71.40;;;;;;5087668;28;19916;-75
2023/05/19 08:56:00;;;;;;;;;;;17.70;71.40;;;;;;5088064;28;19966;-74
2023/05/19 08:58:26;;;;;;;;;;;17.70;71.30;;;;;;5085755;28;20002;-75
2023/05/19 09:00:54;;;;;;;;;;;17.80;71.40;;;;;;5087661;28;19908;-75
2023/05/19 09:03:20;;;;;;;;;;;17.80;71.50;;;;;;5086997;28;20453;-72
2023/05/19 09:05:45;;;;;;;;;;;17.80;71.50;;;;;;5087704;28;20018;-72
2023/05/19 09:08:11;;;;;;;;;;;17.90;71.60;;;;;;5086443;28;20287;-72
2023/05/19 09:10:37;;;;;;;;;;;17.90;71.60;;;;;;5087556;28;19916;-72
2023/05/19 09:13:03;;;;;;;;;;;18.00;71.60;;;;;;5087464;28;19912;-71
2023/05/19 09:15:30;;;;;;;;;;;18.00;71.60;;;;;;5087405;28;20371;-72
2023/05/19 09:18:06;;;;;;;;;;;18.10;71.80;;;;;;5086511;28;19917;-72
2023/05/19 09:20:35;;;;;;;;;;;18.20;71.90;;;;;;5084884;28;19908;-72
2023/05/19 09:23:00;;;;;;;;;;;18.30;71.80;;;;;;5087606;28;19908;-72
2023/05/19 09:25:26;;;;;;;;;;;18.40;71.70;;;;;;5087626;28;20413;-72
2023/05/19 09:27:53;;;;;;;;;;;18.50;71.70;;;;;;5087647;28;19933;-72
2023/05/19 09:30:19;;;;;;;;;;;18.60;71.90;;;;;;5087366;28;19938;-72
2023/05/19 09:32:45;;;;;;;;;;;18.70;72.00;;;;;;5087638;28;19912;-72
2023/05/19 09:35:11;;;;;;;;;;;18.80;71.80;;;;;;5086873;28;20019;-72
2023/05/19 09:37:40;;;;;;;;;;;18.90;71.70;;;;;;5087819;28;20003;-72
2023/05/19 09:40:08;;;;;;;;;;;18.90;71.60;;;;;;5086756;28;19920;-72
2023/05/19 09:42:36;;;;;;;;;;;18.90;71.70;;;;;;5088466;28;19916;-71
2023/05/19 09:45:02;;;;;;;;;;;18.90;71.70;;;;;;5088234;28;19961;-72
2023/05/19 09:47:35;;;;;;;;;;;18.80;71.60;;;;;;5088474;28;19935;-72
2023/05/19 09:50:01;;;;;;;;;;;18.80;71.60;;;;;;5088151;28;20422;-72
2023/05/19 09:52:27;;;;;;;;;;;18.90;71.80;;;;;;5088167;28;20304;-72
2023/05/19 09:54:54;;;;;;;;;;;19.00;71.70;;;;;;5089616;28;19920;-72
2023/05/19 09:57:24;;;;;;;;;;;19.00;71.60;;;;;;5099378;28;19908;-72
2023/05/19 09:59:50;;;;;;;;;;;19.00;71.90;;;;;;5095038;28;19919;-72
2023/05/19 10:02:20;;;;;;;;;;;19.00;72.00;;;;;;5100721;28;19924;-71
2023/05/19 10:04:46;;;;;;;;;;;19.10;72.00;;;;;;5099160;28;19940;-72
2023/05/19 10:07:13;;;;;;;;;;;19.30;72.00;;;;;;5090651;28;19916;-73
2023/05/19 10:09:39;;;;;;;;;;;19.40;72.00;;;;;;5094414;28;19988;-72
2023/05/19 10:12:05;;;;;;;;;;;19.50;72.10;;;;;;5097739;28;19916;-71
2023/05/19 10:14:31;;;;;;;;;;;19.60;71.90;;;;;;5090138;28;20362;-72
2023/05/19 10:16:57;;;;;;;;;;;19.70;71.90;;;;;;5086956;28;19912;-71
2023/05/19 10:19:24;;;;;;;;;;;19.70;71.90;;;;;;5088218;28;19920;-72
2023/05/19 10:21:50;;;;;;;;;;;19.70;72.10;;;;;;5086081;28;19912;-72
2023/05/19 10:24:16;;;;;;;;;;;19.80;72.10;;;;;;5087439;28;20398;-72
2023/05/19 10:26:44;;;;;;;;;;;19.90;72.10;;;;;;5087627;28;19912;-71
2023/05/19 10:29:10;;;;;;;;;;;20.00;72.10;;;;;;5087811;28;19919;-72
2023/05/19 10:31:36;;;;;;;;;;;20.00;72.30;;;;;;5090478;28;19920;-73
2023/05/19 10:34:25;;;;;;;;;;;20.00;72.30;;;;;;5092988;28;20280;-71
2023/05/19 10:37:16;;;;;;;;;;;20.10;72.60;;;;;;5084934;28;20534;-71
2023/05/19 10:39:43;;;;;;;;;;;20.30;72.40;;;;;;5064675;28;19908;-71
2023/05/19 10:42:11;;;;;;;;;;;20.40;72.10;;;;;;5105386;28;19907;-71
2023/05/19 10:44:49;;;;;;;;;;;20.60;72.10;;;;;;5101698;28;19985;-71
2023/05/19 10:47:21;;;;;;;;;;;20.60;72.10;;;;;;5086759;28;19908;-71
2023/05/19 10:49:46;;;;;;;;;;;20.60;72.40;;;;;;5086079;28;19915;-72
2023/05/19 10:52:20;;;;;;;;;;;20.80;72.20;;;;;;5087314;28;19912;-70
2023/05/19 10:54:46;;;;;;;;;;;20.70;72.20;;;;;;5087175;28;19927;-70
2023/05/19 10:57:17;;;;;;;;;;;20.60;72.40;;;;;;5087473;28;19915;-70
2023/05/19 10:59:43;;;;;;;;;;;20.60;72.60;;;;;;5095549;28;20270;-71
2023/05/19 11:02:09;;;;;;;;;;;20.60;72.50;;;;;;5096353;28;19930;-71
2023/05/19 11:04:45;;;;;;;;;;;20.50;72.60;;;;;;5093838;28;19912;-71
2023/05/19 11:07:16;;;;;;;;;;;20.40;72.90;;;;;;5091270;28;20026;-70
2023/05/19 11:09:41;;;;;;;;;;;20.60;73.30;;;;;;5086608;28;20282;-71
2023/05/19 11:12:09;;;;;;;;;;;20.70;73.10;;;;;;5084378;28;19922;-70
2023/05/19 11:14:35;;;;;;;;;;;20.80;73.20;;;;;;5086172;28;19982;-70
2023/05/19 11:17:00;;;;;;;;;;;21.00;73.00;;;;;;5085195;28;19928;-70
2023/05/19 11:19:26;;;;;;;;;;;21.00;72.70;;;;;;5087035;28;19995;-72
2023/05/19 11:21:56;;;;;;;;;;;21.10;72.50;;;;;;5086373;28;19912;-75
2023/05/19 11:24:39;;;;;;;;;;;21.20;72.40;;;;;;5086600;28;19911;-72
2023/05/19 11:27:23;;;;;;;;;;;21.10;72.40;;;;;;5086211;28;19935;-70
2023/05/19 11:29:50;;;;;;;;;;;21.00;72.40;;;;;;5085858;28;19947;-70
2023/05/19 11:32:15;;;;;;;;;;;21.00;72.40;;;;;;5087392;28;19913;-72
2023/05/19 11:34:42;;;;;;;;;;;21.00;72.40;;;;;;5087144;28;19919;-73
2023/05/19 11:37:08;;;;;;;;;;;20.70;72.40;;;;;;5088609;28;19994;-74
2023/05/19 11:39:34;;;;;;;;;;;20.40;72.80;;;;;;5089435;28;20019;-75
2023/05/19 11:42:00;;;;;;;;;;;20.50;73.10;;;;;;5087568;28;19908;-74
2023/05/19 11:44:25;;;;;;;;;;;20.60;72.70;;;;;;5088518;28;19924;-73
2023/05/19 11:46:51;;;;;;;;;;;20.60;72.90;;;;;;5088240;28;20261;-72
2023/05/19 11:49:17;;;;;;;;;;;20.70;73.00;;;;;;5088796;28;19924;-76
2023/05/19 11:51:43;;;;;;;;;;;21.00;72.80;;;;;;5088969;28;19916;-73
2023/05/19 11:54:12;;;;;;;;;;;21.20;72.60;;;;;;5089113;28;19919;-72
2023/05/19 11:56:40;;;;;;;;;;;21.30;72.70;;;;;;5089097;28;20320;-73
2023/05/19 11:59:06;;;;;;;;;;;21.40;72.60;;;;;;5089861;28;19923;-74
2023/05/19 12:01:32;;;;;;;;;;;21.60;72.70;;;;;;5089324;28;19920;-72
2023/05/19 12:03:58;;;;;;;;;;;21.80;72.50;;;;;;5089627;28;19958;-72
2023/05/19 12:06:27;;;;;;;;;;;21.70;72.30;;;;;;5089688;28;19943;-73
2023/05/19 12:08:53;;;;;;;;;;;21.40;72.50;;;;;;5090173;28;19908;-75
2023/05/19 12:11:19;;;;;;;;;;;21.20;72.80;;;;;;5089902;28;19987;-73
2023/05/19 12:13:45;;;;;;;;;;;21.00;73.10;;;;;;5088820;28;20732;-74
2023/05/19 12:16:11;;;;;;;;;;;21.20;73.70;;;;;;5089917;28;19919;-73
2023/05/19 12:18:37;;;;;;;;;;;21.50;73.50;;;;;;5089615;28;19920;-73
2023/05/19 12:21:03;;;;;;;;;;;21.60;73.30;;;;;;5092736;28;19923;-74
2023/05/19 12:23:29;;;;;;;;;;;21.70;72.90;;;;;;5096688;28;19912;-73
2023/05/19 12:25:58;;;;;;;;;;;21.70;73.00;;;;;;5098371;28;19934;-73
2023/05/19 12:28:24;;;;;;;;;;;21.80;73.30;;;;;;5099331;28;20280;-71
2023/05/19 12:30:51;;;;;;;;;;;22.00;73.20;;;;;;5105917;28;19915;-72
2023/05/19 12:33:20;;;;;;;;;;;22.20;73.00;;;;;;5091208;28;19977;-72
2023/05/19 12:35:48;;;;;;;;;;;22.10;72.80;;;;;;5089392;28;19999;-71
2023/05/19 12:38:15;;;;;;;;;;;22.10;73.40;;;;;;5089817;28;19916;-77
2023/05/19 12:40:42;;;;;;;;;;;22.30;73.90;;;;;;5090724;28;20314;-78
2023/05/19 12:43:08;;;;;;;;;;;22.70;74.00;;;;;;5091677;28;19950;-79
2023/05/19 12:45:34;;;;;;;;;;;23.10;73.70;;;;;;5091761;28;19943;-79
2023/05/19 12:48:04;;;;;;;;;;;23.30;73.60;;;;;;5090986;28;20322;-79
2023/05/19 12:50:30;;;;;;;;;;;23.40;73.40;;;;;;5091102;28;19916;-77
2023/05/19 12:52:58;;;;;;;;;;;23.50;73.20;;;;;;5090307;28;20020;-79
2023/05/19 12:55:23;;;;;;;;;;;23.70;73.10;;;;;;5091841;28;19912;-78
2023/05/19 12:57:50;;;;;;;;;;;23.70;73.00;;;;;;5091080;28;19961;-79
2023/05/19 13:00:19;;;;;;;;;;;23.60;73.00;;;;;;5090569;28;19915;-78
2023/05/19 13:02:54;;;;;;;;;;;23.30;73.00;;;;;;5089188;28;19920;-78
2023/05/19 13:05:20;;;;;;;;;;;23.10;73.40;;;;;;5090572;28;19909;-77
2023/05/19 13:07:55;;;;;;;;;;;23.00;73.60;;;;;;5091150;28;19915;-78
2023/05/19 13:10:21;;;;;;;;;;;23.10;73.90;;;;;;5088996;28;19909;-78
2023/05/19 13:12:46;;;;;;;;;;;23.30;74.10;;;;;;5090713;28;19912;-80
2023/05/19 13:15:12;;;;;;;;;;;23.70;74.30;;;;;;5089083;28;20343;-78
2023/05/19 13:17:37;;;;;;;;;;;24.30;74.00;;;;;;5090533;28;19908;-78
2023/05/19 13:20:03;;;;;;;;;;;24.50;73.50;;;;;;5090115;28;20402;-81
2023/05/19 13:22:29;;;;;;;;;;;24.60;73.50;;;;;;5091121;28;19958;-80
2023/05/19 13:24:57;;;;;;;;;;;24.50;73.40;;;;;;5090050;28;19973;-80
2023/05/19 13:27:23;;;;;;;;;;;24.50;73.40;;;;;;5088613;28;20337;-78
2023/05/19 13:29:49;;;;;;;;;;;24.50;73.10;;;;;;5087631;28;20481;-77
2023/05/19 13:32:15;;;;;;;;;;;24.30;73.30;;;;;;5090333;28;19912;-78
2023/05/19 13:34:40;;;;;;;;;;;24.10;73.30;;;;;;5088982;28;19916;-79
2023/05/19 13:37:08;;;;;;;;;;;24.00;73.50;;;;;;5088640;28;19912;-78
2023/05/19 13:39:34;;;;;;;;;;;23.80;73.40;;;;;;5090075;28;19920;-78
2023/05/19 13:41:59;;;;;;;;;;;23.70;73.70;;;;;;5096208;28;19919;-78
2023/05/19 13:44:25;;;;;;;;;;;23.40;73.40;;;;;;5097422;28;19912;-74
2023/05/19 13:46:51;;;;;;;;;;;23.10;73.40;;;;;;5089435;28;19996;-78
2023/05/19 13:49:16;;;;;;;;;;;22.90;73.70;;;;;;5089138;28;20003;-78
2023/05/19 13:51:42;;;;;;;;;;;22.90;73.90;;;;;;5096749;28;20341;-78
2023/05/19 13:54:08;;;;;;;;;;;23.00;73.90;;;;;;5090982;28;19923;-73
2023/05/19 13:56:34;;;;;;;;;;;23.00;73.80;;;;;;5099538;28;19958;-72
2023/05/19 13:59:00;;;;;;;;;;;23.00;73.80;;;;;;5089621;28;19996;-73
2023/05/19 14:01:25;;;;;;;;;;;23.10;73.80;;;;;;5086330;28;20342;-72
2023/05/19 14:03:51;;;;;;;;;;;23.20;73.70;;;;;;5087583;28;19999;-73
2023/05/19 14:06:17;;;;;;;;;;;23.20;73.60;;;;;;5087047;28;19918;-74
2023/05/19 14:08:43;;;;;;;;;;;23.30;73.70;;;;;;5085622;28;19965;-73
2023/05/19 14:11:12;;;;;;;;;;;23.30;73.60;;;;;;5087373;28;19918;-71
2023/05/19 14:13:38;;;;;;;;;;;23.20;73.60;;;;;;5086240;28;19999;-73
2023/05/19 14:16:03;;;;;;;;;;;23.20;73.90;;;;;;5088288;28;19916;-76